This is the latest recevied weather packets stored in our database for station/object OM2RC-6. If no packets are shown the sender has not sent any weather packets the latest 1 day(s).
| Time | Temp. | Humidity | Pressure | Rain* | Wind** | Luminosity | Snow |
|---|---|---|---|---|---|---|---|
| 1777971876 | 20° C | 59% | 1010.3 hPa | - | 4.47 m/s, 139° | - | - |
| 1777971576 | 19.44° C | 60% | 1010.5 hPa | - | 3.58 m/s, 141° | - | - |
| 1777970673 | 18.89° C | 64% | 1010.9 hPa | - | 2.24 m/s, 136° | - | - |
| 1777970372 | 18.89° C | 63% | 1010.9 hPa | - | 3.13 m/s, 126° | - | - |
| 1777969769 | 19.44° C | 62% | 1011 hPa | - | 3.13 m/s, 147° | - | - |
| 1777969467 | 20° C | 60% | 1011.2 hPa | - | 3.13 m/s, 157° | - | - |
| 1777969166 | 19.44° C | 62% | 1010.9 hPa | - | 4.92 m/s, 125° | - | - |
| 1777968865 | 18.89° C | 64% | 1011 hPa | - | 4.02 m/s, 131° | - | - |
| 1777968564 | 18.89° C | 64% | 1010.9 hPa | - | 4.47 m/s, 137° | - | - |
| 1777968262 | 18.89° C | 64% | 1010.9 hPa | - | 3.58 m/s, 117° | - | - |
| 1777967660 | 17.78° C | 66% | 1010.8 hPa | - | 5.36 m/s, 134° | - | - |
| 1777967359 | 17.78° C | 69% | 1011 hPa | - | 5.36 m/s, 130° | - | - |
| 1777967058 | 17.22° C | 68% | 1010.9 hPa | - | 4.47 m/s, 129° | - | - |
| 1777966756 | 17.78° C | 68% | 1011 hPa | - | 4.47 m/s, 128° | - | - |
| 1777966455 | 17.22° C | 68% | 1011 hPa | - | 4.92 m/s, 128° | - | - |
| 1777966154 | 17.78° C | 68% | 1011.1 hPa | - | 4.47 m/s, 143° | - | - |
| 1777965853 | 17.22° C | 69% | 1011.2 hPa | - | 4.47 m/s, 142° | - | - |
| 1777965551 | 17.22° C | 69% | 1011.2 hPa | - | 3.58 m/s, 144° | - | - |
| 1777964648 | 15.56° C | 74% | 1011.3 hPa | - | 5.81 m/s, 147° | - | - |
| 1777964347 | 16.11° C | 73% | 1011.3 hPa | - | 4.02 m/s, 139° | - | - |
| 1777964046 | 16.11° C | 74% | 1011.2 hPa | - | 4.47 m/s, 135° | - | - |
| 1777963746 | 16.11° C | 74% | 1011.3 hPa | - | 3.58 m/s, 142° | - | - |
| 1777963444 | 15.56° C | 74% | 1011.2 hPa | - | 4.47 m/s, 148° | - | - |
| 1777963142 | 15.56° C | 74% | 1011.2 hPa | - | 4.02 m/s, 156° | - | - |
| 1777962540 | 15.56° C | 73% | 1011.1 hPa | - | 4.02 m/s, 152° | - | - |
* Rain since midnight (hover to see other rain measurements)
** Current wind speed in m/s (hover to see current wind gust speed)